createdAt,value
2024-02-20T00:00:00.833Z,8.90
2024-02-20T00:02:27.557Z,8.92
2024-02-20T00:04:54.367Z,8.93
2024-02-20T00:07:21.248Z,8.93
2024-02-20T00:09:48.912Z,8.92
2024-02-20T00:12:15.704Z,8.89
2024-02-20T00:14:44.824Z,8.86
2024-02-20T00:17:11.849Z,8.83
2024-02-20T00:19:38.708Z,8.82
2024-02-20T00:22:05.564Z,8.83
2024-02-20T00:24:32.241Z,8.84
2024-02-20T00:26:59.533Z,8.76
2024-02-20T00:29:26.295Z,8.71
2024-02-20T00:31:54.397Z,8.69
2024-02-20T00:34:21.203Z,8.69
2024-02-20T00:36:48.341Z,8.66
2024-02-20T00:39:15.172Z,8.65
2024-02-20T00:41:41.939Z,8.67
2024-02-20T00:44:08.671Z,8.69
2024-02-20T00:46:35.356Z,8.68
2024-02-20T00:49:03.655Z,8.69
2024-02-20T00:51:30.849Z,8.68
2024-02-20T00:53:57.598Z,8.65
2024-02-20T00:56:24.890Z,8.65
2024-02-20T00:58:54.651Z,8.64
2024-02-20T01:01:21.361Z,8.64
2024-02-20T01:03:48.923Z,8.67
2024-02-20T01:06:17.321Z,8.68
2024-02-20T01:08:44.077Z,8.66
2024-02-20T01:11:10.788Z,8.64
2024-02-20T01:13:39.181Z,8.64
2024-02-20T01:16:07.661Z,8.62
2024-02-20T01:18:38.887Z,8.63
2024-02-20T01:21:05.868Z,8.60
2024-02-20T01:23:33.955Z,8.59
2024-02-20T01:26:00.614Z,8.60
2024-02-20T01:28:27.465Z,8.58
2024-02-20T01:30:54.256Z,8.52
2024-02-20T01:33:21.195Z,8.49
2024-02-20T01:35:48.032Z,8.49
2024-02-20T01:38:14.743Z,8.48
2024-02-20T01:40:43.749Z,8.43
2024-02-20T01:43:10.530Z,8.43
2024-02-20T01:45:37.593Z,8.39
2024-02-20T01:48:06.173Z,8.41
2024-02-20T01:50:36.170Z,8.42
2024-02-20T01:53:03.711Z,8.44
2024-02-20T01:55:30.820Z,8.42
2024-02-20T01:57:59.125Z,8.39
2024-02-20T02:00:25.904Z,8.39
2024-02-20T02:02:53.097Z,8.38
2024-02-20T02:05:20.920Z,8.41
2024-02-20T02:07:49.648Z,8.39
2024-02-20T02:10:16.625Z,8.38
2024-02-20T02:12:43.493Z,8.36
2024-02-20T02:15:11.734Z,8.38
2024-02-20T02:17:38.599Z,8.40
2024-02-20T02:20:07.995Z,8.38
2024-02-20T02:22:35.466Z,8.43
2024-02-20T02:25:03.026Z,8.44
2024-02-20T02:27:31.161Z,8.41
2024-02-20T02:29:58.353Z,8.44
2024-02-20T02:32:25.124Z,8.43
2024-02-20T02:34:52.018Z,8.44
2024-02-20T02:37:18.847Z,8.43
2024-02-20T02:39:45.639Z,8.36
2024-02-20T02:42:12.353Z,8.32
2024-02-20T02:44:40.428Z,8.32
2024-02-20T02:47:07.975Z,8.31
2024-02-20T02:49:34.892Z,8.37
2024-02-20T02:52:01.759Z,8.39
2024-02-20T02:54:30.559Z,8.42
2024-02-20T02:56:58.713Z,8.41
2024-02-20T02:59:25.437Z,8.42
2024-02-20T03:01:53.623Z,8.42
2024-02-20T03:04:20.761Z,8.43
2024-02-20T03:06:48.541Z,8.41
2024-02-20T03:09:16.493Z,8.39
2024-02-20T03:11:44.034Z,8.38
2024-02-20T03:14:14.693Z,8.40
2024-02-20T03:16:41.672Z,8.42
2024-02-20T03:19:10.052Z,8.40
2024-02-20T03:21:40.543Z,8.42
2024-02-20T03:24:07.334Z,8.41
2024-02-20T03:26:34.409Z,8.40
2024-02-20T03:29:01.503Z,8.39
2024-02-20T03:31:28.310Z,8.38
2024-02-20T03:33:55.187Z,8.39
2024-02-20T03:36:23.604Z,8.36
2024-02-20T03:38:50.327Z,8.35
2024-02-20T03:41:17.746Z,8.35
2024-02-20T03:43:44.573Z,8.36
2024-02-20T03:46:13.223Z,8.37
2024-02-20T03:48:40.425Z,8.36
2024-02-20T03:51:07.406Z,8.36
2024-02-20T03:53:35.478Z,8.35
2024-02-20T03:56:02.986Z,8.36
2024-02-20T03:58:29.835Z,8.35
2024-02-20T04:00:56.668Z,8.36
2024-02-20T04:03:23.505Z,8.37
2024-02-20T04:05:50.336Z,8.38
2024-02-20T04:08:17.065Z,8.39
2024-02-20T04:10:46.018Z,8.40
2024-02-20T04:13:12.829Z,8.40
2024-02-20T04:15:39.560Z,8.40
2024-02-20T04:18:06.709Z,8.40
2024-02-20T04:20:33.466Z,8.41
2024-02-20T04:23:04.395Z,8.41
2024-02-20T04:25:31.182Z,8.44
2024-02-20T04:27:59.578Z,8.46
2024-02-20T04:30:26.353Z,8.45
2024-02-20T04:32:53.165Z,8.46
2024-02-20T04:35:19.892Z,8.42
2024-02-20T04:37:49.015Z,8.41
2024-02-20T04:40:18.458Z,8.41
2024-02-20T04:42:45.317Z,8.39
2024-02-20T04:45:13.645Z,8.39
2024-02-20T04:47:40.499Z,8.40
2024-02-20T04:50:09.058Z,8.40
2024-02-20T04:52:36.035Z,8.42
2024-02-20T04:55:04.099Z,8.42
2024-02-20T04:57:31.096Z,8.42
2024-02-20T04:59:57.847Z,8.42
2024-02-20T05:02:26.049Z,8.43
2024-02-20T05:04:56.555Z,8.44
2024-02-20T05:07:24.117Z,8.44
2024-02-20T05:09:51.920Z,8.43
2024-02-20T05:12:18.854Z,8.42
2024-02-20T05:14:47.997Z,8.41
2024-02-20T05:17:14.889Z,8.41
2024-02-20T05:19:43.177Z,8.41
2024-02-20T05:22:10.221Z,8.40
2024-02-20T05:24:37.219Z,8.39
2024-02-20T05:27:04.701Z,8.39
2024-02-20T05:29:32.023Z,8.36
2024-02-20T05:31:59.163Z,8.35
2024-02-20T05:34:26.125Z,8.35
2024-02-20T05:36:54.363Z,8.36
2024-02-20T05:39:21.151Z,8.36
2024-02-20T05:41:48.798Z,8.36
2024-02-20T05:44:16.862Z,8.36
2024-02-20T05:46:44.380Z,8.36
2024-02-20T05:49:11.285Z,8.38
2024-02-20T05:51:38.165Z,8.39
2024-02-20T05:54:07.056Z,8.41
2024-02-20T05:56:33.893Z,8.41
2024-02-20T05:59:00.844Z,8.42
2024-02-20T06:01:27.787Z,8.42
2024-02-20T06:03:54.769Z,8.41
2024-02-20T06:06:21.844Z,8.43
2024-02-20T06:08:50.769Z,8.45
2024-02-20T06:11:20.179Z,8.46
2024-02-20T06:13:47.142Z,8.44
2024-02-20T06:16:14.192Z,8.45
2024-02-20T06:18:41.500Z,8.48
2024-02-20T06:21:12.429Z,8.49
2024-02-20T06:23:40.101Z,8.49
2024-02-20T06:26:09.423Z,8.48
2024-02-20T06:28:39.113Z,8.51
2024-02-20T06:31:07.371Z,8.53
2024-02-20T06:33:34.238Z,8.54
2024-02-20T06:36:01.190Z,8.56
2024-02-20T06:38:33.793Z,8.54
2024-02-20T06:41:01.329Z,8.53
2024-02-20T06:43:28.637Z,8.54
2024-02-20T06:45:57.277Z,8.55
2024-02-20T06:48:24.354Z,8.55
2024-02-20T06:50:51.181Z,8.52
2024-02-20T06:53:17.863Z,8.52
2024-02-20T06:55:44.770Z,8.52
2024-02-20T06:58:12.124Z,8.51
2024-02-20T07:00:39.271Z,8.50
2024-02-20T07:03:08.037Z,8.50
2024-02-20T07:05:35.263Z,8.49
2024-02-20T07:08:02.228Z,8.46
2024-02-20T07:10:29.303Z,8.45
2024-02-20T07:12:58.640Z,8.44
2024-02-20T07:15:25.673Z,8.40
2024-02-20T07:17:52.444Z,8.39
2024-02-20T07:20:20.846Z,8.39
2024-02-20T07:22:51.210Z,8.39
2024-02-20T07:25:20.863Z,8.43
2024-02-20T07:27:48.226Z,8.45
2024-02-20T07:30:15.687Z,8.46
2024-02-20T07:32:43.539Z,8.48
2024-02-20T07:35:11.774Z,8.51
2024-02-20T07:37:40.886Z,8.53
2024-02-20T07:40:10.272Z,8.54
2024-02-20T07:42:37.382Z,8.55
2024-02-20T07:45:04.785Z,8.54
2024-02-20T07:47:31.567Z,8.56
2024-02-20T07:49:58.488Z,8.56
2024-02-20T07:52:25.991Z,8.54
2024-02-20T07:54:54.109Z,8.53
2024-02-20T07:57:20.846Z,8.56
2024-02-20T07:59:47.769Z,8.57
2024-02-20T08:02:14.932Z,8.57
2024-02-20T08:04:42.785Z,8.59
2024-02-20T08:07:10.301Z,8.61
2024-02-20T08:09:37.348Z,8.62
2024-02-20T08:12:06.925Z,8.63
2024-02-20T08:14:33.717Z,8.63
2024-02-20T08:17:00.543Z,8.65
2024-02-20T08:19:27.442Z,8.69
2024-02-20T08:21:54.405Z,8.70
2024-02-20T08:24:21.212Z,8.71
2024-02-20T08:26:48.083Z,8.71
2024-02-20T08:29:16.346Z,8.73
2024-02-20T08:31:43.790Z,8.75
2024-02-20T08:34:11.914Z,8.75
2024-02-20T08:36:39.908Z,8.81
2024-02-20T08:39:06.836Z,8.81
2024-02-20T08:41:33.690Z,8.81
2024-02-20T08:44:00.541Z,8.81
2024-02-20T08:46:28.644Z,8.84
2024-02-20T08:48:55.577Z,8.81
2024-02-20T08:51:22.361Z,8.83
2024-02-20T08:53:51.739Z,8.84
2024-02-20T08:56:18.458Z,8.83
2024-02-20T08:58:45.381Z,8.83
2024-02-20T09:01:12.296Z,8.84
2024-02-20T09:03:40.470Z,8.83
2024-02-20T09:06:07.706Z,8.86
2024-02-20T09:08:34.647Z,8.87
2024-02-20T09:11:05.285Z,8.86
2024-02-20T09:13:32.345Z,8.88
2024-02-20T09:15:59.112Z,8.88
2024-02-20T09:18:26.250Z,8.88
2024-02-20T09:20:54.592Z,8.93
2024-02-20T09:23:21.372Z,8.94
2024-02-20T09:25:48.357Z,8.95
2024-02-20T09:28:15.190Z,8.95
2024-02-20T09:30:41.990Z,8.98
2024-02-20T09:33:08.861Z,9.00
2024-02-20T09:35:36.461Z,8.99
2024-02-20T09:38:04.942Z,9.01
2024-02-20T09:40:31.813Z,9.03
2024-02-20T09:43:04.750Z,9.07
2024-02-20T09:45:33.778Z,9.09
2024-02-20T09:48:02.461Z,9.11
2024-02-20T09:50:31.447Z,9.15
2024-02-20T09:52:58.533Z,9.14
2024-02-20T09:55:27.916Z,9.15
2024-02-20T09:57:55.629Z,9.17
2024-02-20T10:00:22.831Z,9.17
2024-02-20T10:02:52.320Z,9.16
2024-02-20T10:05:19.977Z,9.18
2024-02-20T10:07:47.472Z,9.20
2024-02-20T10:10:17.687Z,9.20
2024-02-20T10:12:46.288Z,9.25
2024-02-20T10:15:14.562Z,9.25
2024-02-20T10:17:41.723Z,9.28
2024-02-20T10:20:14.052Z,9.29
2024-02-20T10:22:45.348Z,9.30
2024-02-20T10:25:15.013Z,9.31
2024-02-20T10:27:42.995Z,9.31
2024-02-20T10:30:11.971Z,9.33
2024-02-20T10:32:39.336Z,9.34
2024-02-20T10:35:08.505Z,9.36
2024-02-20T10:37:36.519Z,9.38
2024-02-20T10:40:16.942Z,9.40
2024-02-20T10:42:50.970Z,9.44
2024-02-20T10:45:19.125Z,9.47
2024-02-20T10:47:47.008Z,9.49
2024-02-20T10:50:14.912Z,9.52
2024-02-20T10:52:42.881Z,9.55
2024-02-20T10:55:23.598Z,9.56
2024-02-20T10:58:03.009Z,9.57
2024-02-20T11:00:33.626Z,9.59
2024-02-20T11:03:01.519Z,9.58
2024-02-20T11:05:32.137Z,9.60
2024-02-20T11:08:05.802Z,9.62
2024-02-20T11:10:34.860Z,9.63
2024-02-20T11:13:11.915Z,9.65
2024-02-20T11:15:40.834Z,9.64
2024-02-20T11:18:16.271Z,9.68
2024-02-20T11:20:45.157Z,9.69
2024-02-20T11:23:12.339Z,9.71
2024-02-20T11:25:40.349Z,9.72
2024-02-20T11:28:13.830Z,9.74
2024-02-20T11:30:43.002Z,9.75
2024-02-20T11:33:14.665Z,9.77
2024-02-20T11:35:43.382Z,9.77
2024-02-20T11:38:12.733Z,9.80
2024-02-20T11:40:40.330Z,9.85
2024-02-20T11:43:08.142Z,9.85
2024-02-20T11:45:36.021Z,9.87
2024-02-20T11:48:08.649Z,9.89
2024-02-20T11:50:38.289Z,9.91
2024-02-20T11:53:07.155Z,9.93
2024-02-20T11:55:35.104Z,9.93
2024-02-20T11:58:03.454Z,9.96
2024-02-20T12:00:33.341Z,9.97
2024-02-20T12:03:01.818Z,10.00
2024-02-20T12:05:31.234Z,10.02
2024-02-20T12:07:58.236Z,10.03
2024-02-20T12:10:28.574Z,10.03
2024-02-20T12:12:55.400Z,10.03
2024-02-20T12:15:22.213Z,10.06
2024-02-20T12:17:49.108Z,10.08
2024-02-20T12:20:16.037Z,10.11
2024-02-20T12:22:46.339Z,10.13
2024-02-20T12:25:18.401Z,10.15
2024-02-20T12:27:48.060Z,10.19
2024-02-20T12:30:16.222Z,10.20
2024-02-20T12:32:43.072Z,10.23
2024-02-20T12:35:10.190Z,10.25
2024-02-20T12:37:37.439Z,10.27
2024-02-20T12:40:07.784Z,10.32
2024-02-20T12:42:34.533Z,10.34
2024-02-20T12:45:01.324Z,10.35
2024-02-20T12:47:28.044Z,10.36
2024-02-20T12:49:54.948Z,10.38
2024-02-20T12:52:21.655Z,10.38
2024-02-20T12:54:48.446Z,10.38
2024-02-20T12:57:16.541Z,10.39
2024-02-20T12:59:43.236Z,10.39
2024-02-20T13:02:10.094Z,10.41
2024-02-20T13:04:36.986Z,10.41
2024-02-20T13:07:04.654Z,10.43
2024-02-20T13:09:31.464Z,10.44
2024-02-20T13:12:01.949Z,10.44
2024-02-20T13:14:30.196Z,10.46
2024-02-20T13:16:57.121Z,10.47
2024-02-20T13:19:23.892Z,10.50
2024-02-20T13:21:50.770Z,10.51
2024-02-20T13:24:17.617Z,10.52
2024-02-20T13:26:44.380Z,10.54
2024-02-20T13:29:12.448Z,10.55
2024-02-20T13:31:40.992Z,10.56
2024-02-20T13:34:11.356Z,10.57
2024-02-20T13:36:39.204Z,10.57
2024-02-20T13:39:08.012Z,10.57
2024-02-20T13:41:35.714Z,10.58
2024-02-20T13:44:05.026Z,10.58
2024-02-20T13:46:32.056Z,10.60
2024-02-20T13:49:02.373Z,10.62
2024-02-20T13:51:30.601Z,10.66
2024-02-20T13:53:59.853Z,10.67
2024-02-20T13:56:28.630Z,10.70
2024-02-20T13:58:56.044Z,10.74
2024-02-20T14:01:23.014Z,10.78
2024-02-20T14:03:49.799Z,10.82
2024-02-20T14:06:18.027Z,10.86
2024-02-20T14:08:46.590Z,10.88
2024-02-20T14:11:18.866Z,10.89
2024-02-20T14:13:46.238Z,10.88
2024-02-20T14:16:17.015Z,10.91
2024-02-20T14:18:44.221Z,10.92
2024-02-20T14:21:12.832Z,10.93
2024-02-20T14:23:42.775Z,10.97
2024-02-20T14:26:09.774Z,10.99
2024-02-20T14:28:37.468Z,11.03
2024-02-20T14:31:05.042Z,11.05
2024-02-20T14:33:32.177Z,11.08
2024-02-20T14:35:59.237Z,11.08
2024-02-20T14:38:26.270Z,11.07
2024-02-20T14:40:54.395Z,11.06
2024-02-20T14:43:21.313Z,11.06
2024-02-20T14:45:48.228Z,11.06
2024-02-20T14:48:15.148Z,11.07
2024-02-20T14:50:42.378Z,11.09
2024-02-20T14:53:09.702Z,11.09
2024-02-20T14:55:36.993Z,11.09
2024-02-20T14:58:05.892Z,11.10
2024-02-20T15:00:32.995Z,11.09
2024-02-20T15:02:59.756Z,11.07
2024-02-20T15:05:26.704Z,11.05
2024-02-20T15:07:53.461Z,11.03
2024-02-20T15:10:20.486Z,11.01
2024-02-20T15:12:47.309Z,10.98
2024-02-20T15:15:17.886Z,10.96
2024-02-20T15:17:45.759Z,10.91
2024-02-20T15:20:13.162Z,10.89
2024-02-20T15:22:40.038Z,10.88
2024-02-20T15:25:12.398Z,10.87
2024-02-20T15:27:40.512Z,10.87
2024-02-20T15:30:08.140Z,10.87
2024-02-20T15:32:36.424Z,10.85
2024-02-20T15:35:06.773Z,10.84
2024-02-20T15:37:34.084Z,10.83
2024-02-20T15:40:00.926Z,10.83
2024-02-20T15:42:27.674Z,10.82
2024-02-20T15:44:55.102Z,10.82
2024-02-20T15:47:22.864Z,10.82
2024-02-20T15:49:51.076Z,10.81
2024-02-20T15:52:22.238Z,10.79
2024-02-20T15:54:50.383Z,10.78
2024-02-20T15:57:17.500Z,10.78
2024-02-20T15:59:44.376Z,10.75
2024-02-20T16:02:11.336Z,10.72
2024-02-20T16:04:38.381Z,10.69
2024-02-20T16:07:06.834Z,10.65
2024-02-20T16:09:33.686Z,10.64
2024-02-20T16:12:01.282Z,10.62
2024-02-20T16:14:28.020Z,10.63
2024-02-20T16:16:55.011Z,10.60
2024-02-20T16:19:21.934Z,10.58
2024-02-20T16:21:48.838Z,10.57
2024-02-20T16:24:17.240Z,10.58
2024-02-20T16:26:45.846Z,10.56
2024-02-20T16:29:12.663Z,10.54
2024-02-20T16:31:39.421Z,10.54
2024-02-20T16:34:06.891Z,10.50
2024-02-20T16:36:33.768Z,10.47
2024-02-20T16:39:01.556Z,10.47
2024-02-20T16:41:29.783Z,10.44
2024-02-20T16:43:56.577Z,10.42
2024-02-20T16:46:23.354Z,10.41
2024-02-20T16:48:50.192Z,10.40
2024-02-20T16:51:17.011Z,10.38
2024-02-20T16:53:43.746Z,10.37
2024-02-20T16:56:13.220Z,10.36
2024-02-20T16:58:41.315Z,10.35
2024-02-20T17:01:08.856Z,10.33
2024-02-20T17:03:35.817Z,10.32
2024-02-20T17:06:02.696Z,10.30
2024-02-20T17:08:34.821Z,10.30
2024-02-20T17:11:01.688Z,10.30
2024-02-20T17:13:28.483Z,10.28
2024-02-20T17:15:56.897Z,10.26
2024-02-20T17:18:23.823Z,10.24
2024-02-20T17:20:51.170Z,10.24
2024-02-20T17:23:17.877Z,10.24
2024-02-20T17:25:44.629Z,10.24
2024-02-20T17:28:11.667Z,10.24
2024-02-20T17:30:38.471Z,10.25
2024-02-20T17:33:06.702Z,10.24
2024-02-20T17:35:33.770Z,10.22
2024-02-20T17:38:03.390Z,10.22
2024-02-20T17:40:31.365Z,10.21
2024-02-20T17:42:58.126Z,10.21
2024-02-20T17:45:27.356Z,10.22
2024-02-20T17:47:56.119Z,10.19
2024-02-20T17:50:24.348Z,10.20
2024-02-20T17:52:51.217Z,10.20
2024-02-20T17:55:19.952Z,10.20
2024-02-20T17:57:46.868Z,10.19
2024-02-20T18:00:14.433Z,10.17
2024-02-20T18:02:41.118Z,10.16
2024-02-20T18:05:08.425Z,10.15
2024-02-20T18:07:37.997Z,10.14
2024-02-20T18:10:06.914Z,10.13
2024-02-20T18:12:33.763Z,10.11
2024-02-20T18:15:05.285Z,10.10
2024-02-20T18:17:32.261Z,10.07
2024-02-20T18:19:59.372Z,10.04
2024-02-20T18:22:26.189Z,10.01
2024-02-20T18:24:54.644Z,10.00
2024-02-20T18:27:21.478Z,9.99
2024-02-20T18:29:48.255Z,9.97
2024-02-20T18:32:14.971Z,9.97
2024-02-20T18:34:41.933Z,9.96
2024-02-20T18:37:13.034Z,9.96
2024-02-20T18:39:44.722Z,9.93
2024-02-20T18:42:13.608Z,9.94
2024-02-20T18:44:40.329Z,9.95
2024-02-20T18:47:07.075Z,9.95
2024-02-20T18:49:33.854Z,9.94
2024-02-20T18:52:00.665Z,9.94
2024-02-20T18:54:27.571Z,9.95
2024-02-20T18:56:54.274Z,9.94
2024-02-20T18:59:23.855Z,9.94
2024-02-20T19:01:51.813Z,9.95
2024-02-20T19:04:19.577Z,9.95
2024-02-20T19:06:47.267Z,9.95
2024-02-20T19:09:14.062Z,9.95
2024-02-20T19:11:43.617Z,9.95
2024-02-20T19:14:10.403Z,9.95
2024-02-20T19:16:38.672Z,9.93
2024-02-20T19:19:05.482Z,9.93
2024-02-20T19:21:33.239Z,9.93
2024-02-20T19:23:59.966Z,9.92
2024-02-20T19:26:26.706Z,9.92
2024-02-20T19:28:53.659Z,9.90
2024-02-20T19:31:20.428Z,9.92
2024-02-20T19:33:48.844Z,9.93
2024-02-20T19:36:16.718Z,9.93
2024-02-20T19:38:44.056Z,9.93
2024-02-20T19:41:10.846Z,9.92
2024-02-20T19:43:37.767Z,9.91
2024-02-20T19:46:08.362Z,9.92
2024-02-20T19:48:36.950Z,9.91
2024-02-20T19:51:08.106Z,9.90
2024-02-20T19:53:35.624Z,9.90
2024-02-20T19:56:03.112Z,9.92
2024-02-20T19:58:31.312Z,9.92
2024-02-20T20:00:58.252Z,9.92
2024-02-20T20:03:28.199Z,9.92
2024-02-20T20:05:55.072Z,9.91
2024-02-20T20:08:24.349Z,9.92
2024-02-20T20:10:51.325Z,9.90
2024-02-20T20:13:18.390Z,9.89
2024-02-20T20:15:46.653Z,9.89
2024-02-20T20:18:13.671Z,9.90
2024-02-20T20:20:40.522Z,9.89
2024-02-20T20:23:07.806Z,9.88
2024-02-20T20:25:36.011Z,9.90
2024-02-20T20:28:02.906Z,9.91
2024-02-20T20:30:29.581Z,9.92
2024-02-20T20:32:56.529Z,9.92
2024-02-20T20:35:25.596Z,9.91
2024-02-20T20:37:55.159Z,9.89
2024-02-20T20:40:22.119Z,9.89
2024-02-20T20:42:50.610Z,9.87
2024-02-20T20:45:18.293Z,9.88
2024-02-20T20:47:45.052Z,9.87
2024-02-20T20:50:12.059Z,9.86
2024-02-20T20:52:38.986Z,9.88
2024-02-20T20:55:06.679Z,9.88
2024-02-20T20:57:33.418Z,9.88
2024-02-20T21:00:01.883Z,9.87
2024-02-20T21:02:28.580Z,9.86
2024-02-20T21:04:55.483Z,9.85
2024-02-20T21:07:22.383Z,9.86
2024-02-20T21:09:49.093Z,9.87
2024-02-20T21:12:15.847Z,9.86
2024-02-20T21:14:42.681Z,9.88
2024-02-20T21:17:10.948Z,9.88
2024-02-20T21:19:37.870Z,9.87
2024-02-20T21:22:04.856Z,9.87
2024-02-20T21:24:31.722Z,9.87
2024-02-20T21:26:58.414Z,9.87
2024-02-20T21:29:25.943Z,9.87
2024-02-20T21:31:52.806Z,9.86
2024-02-20T21:34:21.137Z,9.87
2024-02-20T21:36:47.958Z,9.87
2024-02-20T21:39:16.304Z,9.86
2024-02-20T21:41:43.066Z,9.86
2024-02-20T21:44:09.871Z,9.85
2024-02-20T21:46:36.654Z,9.85
2024-02-20T21:49:04.427Z,9.86
2024-02-20T21:51:32.584Z,9.85
2024-02-20T21:53:59.724Z,9.85
2024-02-20T21:56:26.383Z,9.85
2024-02-20T21:58:53.238Z,9.83
2024-02-20T22:01:20.505Z,9.82
2024-02-20T22:03:47.379Z,9.83
2024-02-20T22:06:14.188Z,9.85
2024-02-20T22:08:42.331Z,9.86
2024-02-20T22:11:09.435Z,9.87
2024-02-20T22:13:37.014Z,9.88
2024-02-20T22:16:05.584Z,9.88
2024-02-20T22:18:32.493Z,9.88
2024-02-20T22:20:59.515Z,9.88
2024-02-20T22:23:26.542Z,9.87
2024-02-20T22:25:55.024Z,9.86
2024-02-20T22:28:21.875Z,9.87
2024-02-20T22:30:48.926Z,9.88
2024-02-20T22:33:15.676Z,9.87
2024-02-20T22:35:42.490Z,9.87
2024-02-20T22:38:09.764Z,9.88
2024-02-20T22:40:36.598Z,9.88
2024-02-20T22:43:04.795Z,9.88
2024-02-20T22:45:31.686Z,9.87
2024-02-20T22:47:58.540Z,9.88
2024-02-20T22:50:25.375Z,9.89
2024-02-20T22:52:52.289Z,9.90
2024-02-20T22:55:19.067Z,9.91
2024-02-20T22:57:45.781Z,9.91
2024-02-20T23:00:16.569Z,9.90
2024-02-20T23:02:43.408Z,9.90
2024-02-20T23:05:10.267Z,9.90
2024-02-20T23:07:37.144Z,9.92
2024-02-20T23:10:04.437Z,9.91
2024-02-20T23:12:31.172Z,9.91
2024-02-20T23:14:58.909Z,9.91
2024-02-20T23:17:27.097Z,9.90
2024-02-20T23:19:54.174Z,9.91
2024-02-20T23:22:21.013Z,9.90
2024-02-20T23:24:47.746Z,9.89
2024-02-20T23:27:14.498Z,9.90
2024-02-20T23:29:41.189Z,9.91
2024-02-20T23:32:07.964Z,9.91
2024-02-20T23:34:36.093Z,9.92
2024-02-20T23:37:03.249Z,9.93
2024-02-20T23:39:30.228Z,9.93
2024-02-20T23:41:57.079Z,9.92
2024-02-20T23:44:23.790Z,9.90
2024-02-20T23:46:50.539Z,9.90
2024-02-20T23:49:18.209Z,9.89
2024-02-20T23:51:46.436Z,9.89
2024-02-20T23:54:13.222Z,9.90
2024-02-20T23:56:39.913Z,9.91
2024-02-20T23:59:06.680Z,9.91
